This is the latest recevied weather packets stored in our database for station/object N3WMC. If no packets are shown the sender has not sent any weather packets the latest 10 day(s).
| Time | Temp. | Humidity | Pressure | Rain* | Wind** | Luminosity | Snow |
|---|---|---|---|---|---|---|---|
| 1787584952 | 19.44° C | 64% | 1017 hPa | 0 mm | - | 733 W/m² | - |
| 1787584652 | 18.89° C | 65% | 1017.2 hPa | 0 mm | - | 439 W/m² | - |
| 1787584350 | 19.44° C | 66% | 1017.2 hPa | 0 mm | - | 707 W/m² | - |
| 1787584049 | 20° C | 63% | 1017.3 hPa | 0 mm | - | 203 W/m² | - |
| 1787583744 | 18.89° C | 68% | 1017.1 hPa | 0 mm | - | 606 W/m² | - |
| 1787583439 | 18.89° C | 68% | 1017.2 hPa | 0 mm | - | 610 W/m² | - |
| 1787583138 | 19.44° C | 67% | 1017.4 hPa | 0 mm | - | 582 W/m² | - |
| 1787582832 | 19.44° C | 68% | 1017 hPa | 0 mm | - | 601 W/m² | - |
| 1787582528 | 18.89° C | 71% | 1017.1 hPa | 0 mm | - | 562 W/m² | - |
| 1787582222 | 18.89° C | 73% | 1017 hPa | 0 mm | - | 499 W/m² | - |
| 1787581917 | 18.89° C | 73% | 1017.1 hPa | 0 mm | - | 545 W/m² | - |
| 1787581613 | 18.33° C | 76% | 1016.9 hPa | 0 mm | - | 511 W/m² | - |
| 1787581313 | 18.33° C | 76% | 1017 hPa | 0 mm | - | 484 W/m² | - |
| 1787581008 | 17.78° C | 80% | 1017.1 hPa | 0 mm | - | 329 W/m² | - |
| 1787580703 | 17.22° C | 81% | 1017.2 hPa | 0 mm | - | 629 W/m² | - |
| 1787580399 | 17.22° C | 83% | 1017.2 hPa | 0 mm | - | 251 W/m² | - |
| 1787580094 | 17.22° C | 83% | 1017.1 hPa | 0 mm | - | 250 W/m² | - |
| 1787579794 | 17.22° C | 84% | 1017.2 hPa | 0 mm | - | 255 W/m² | - |
| 1787579493 | 16.67° C | 85% | 1017.2 hPa | 0 mm | - | 572 W/m² | - |
| 1787579189 | 16.11° C | 88% | 1017.2 hPa | 0 mm | - | 240 W/m² | - |
| 1787578884 | 16.11° C | 87% | 1017.2 hPa | 0 mm | - | 267 W/m² | - |
| 1787578580 | 16.11° C | 89% | 1017.1 hPa | 0 mm | - | 402 W/m² | - |
| 1787578279 | 15.56° C | 91% | 1017.1 hPa | 0 mm | - | 284 W/m² | - |
| 1787577975 | 15.56° C | 91% | 1016.9 hPa | 0 mm | - | 166 W/m² | - |
| 1787577670 | 15.56° C | 91% | 1017 hPa | 0 mm | - | 147 W/m² | - |
* Rain latest hour (hover to see other rain measurements)
** Current wind speed in m/s (hover to see current wind gust speed)